Time;durP1;ratioP1;P1;durP2;ratioP2;P2;SDS_P1;SDS_P2;PMS_P1;PMS_P2;Temp;Humidity;BMP_temperature;BMP_pressure;BME280_temperature;BME280_humidity;BME280_pressure;Samples;Min_cycle;Max_cycle;Signal;HPM_P1;HPM_P2
2024/02/22 13:17:32;;;;;;;2.13;1.30;;;;;;;;;;5083784;27;20201;-82
2024/02/22 13:20:05;;;;;;;3.47;1.63;;;11.00;99.90;;;;;;5087576;28;20033;-85
2024/02/22 13:22:31;;;;;;;1.67;1.10;;;;;;;;;;5060491;28;20033;-83
2024/02/22 13:24:57;;;;;;;2.75;1.30;;;;;;;;;;5078922;28;20028;-84
2024/02/22 13:27:23;;;;;;;4.28;1.40;;;;;;;;;;5066751;28;20116;-81
2024/02/22 13:29:49;;;;;;;1.95;1.30;;;;;;;;;;5066175;28;20029;-83
2024/02/22 13:32:16;;;;;;;2.92;1.40;;;;;;;;;;5084663;28;20031;-81
2024/02/22 13:34:43;;;;;;;3.55;1.48;;;;;;;;;;5068782;28;20516;-79
2024/02/22 13:37:09;;;;;;;2.58;1.52;;;;;;;;;;5068059;28;20036;-82
2024/02/22 13:39:35;;;;;;;1.77;1.30;;;;;;;;;;5067927;28;20431;-83
2024/02/22 13:42:01;;;;;;;3.58;1.65;;;;;;;;;;5070103;28;20033;-79
2024/02/22 13:44:28;;;;;;;2.95;1.50;;;;;;;;;;5064912;28;20492;-81
2024/02/22 13:46:54;;;;;;;2.65;1.40;;;;;;;;;;5066034;28;20035;-82
2024/02/22 13:49:21;;;;;;;2.63;1.50;;;;;;;;;;5067217;28;20036;-82
2024/02/22 13:51:57;;;;;;;3.35;1.50;;;;;;;;;;5067678;28;20089;-80
2024/02/22 13:54:23;;;;;;;4.20;1.70;;;;;;;;;;5069285;28;20488;-81
2024/02/22 13:56:49;;;;;;;2.55;1.50;;;;;;;;;;5065288;28;20112;-80
2024/02/22 13:59:16;;;;;;;2.67;1.67;;;;;;;;;;5070109;28;20465;-81
2024/02/22 14:01:56;;;;;;;4.00;1.60;;;11.10;99.90;;;;;;5066444;28;20072;-82
2024/02/22 14:04:23;;;;;;;6.43;1.90;;;;;;;;;;5066810;28;20092;-81
2024/02/22 14:06:49;;;;;;;3.03;1.77;;;;;;;;;;5069310;28;20519;-82
2024/02/22 14:09:16;;;;;;;3.67;1.50;;;;;;;;;;5072965;28;20405;-82
2024/02/22 14:11:43;;;;;;;2.85;1.30;;;;;;;;;;5070873;28;20025;-82
2024/02/22 14:14:09;;;;;;;2.97;1.67;;;;;;;;;;5071826;28;20056;-82
2024/02/22 14:16:35;;;;;;;2.78;1.65;;;;;;;;;;5065417;28;20029;-83
2024/02/22 14:19:02;;;;;;;3.50;1.42;;;;;;;;;;5065204;28;20382;-85
2024/02/22 14:21:28;;;;;;;2.13;1.40;;;;;;;;;;5069564;28;20025;-84
2024/02/22 14:23:55;;;;;;;2.25;1.40;;;;;;;;;;5072317;28;20048;-81
2024/02/22 14:26:25;;;;;;;4.75;1.83;;;;;;;;;;5083264;28;20120;-83
2024/02/22 14:28:51;;;;;;;2.47;1.50;;;;;;;;;;5054904;28;20037;-81
2024/02/22 14:31:19;;;;;;;2.17;1.35;;;;;;;;;;5057263;28;20032;-83
2024/02/22 14:33:45;;;;;;;2.80;1.60;;;;;;;;;;5054943;28;20032;-82
2024/02/22 14:36:12;;;;;;;2.85;1.40;;;;;;;;;;5056965;28;20040;-83
2024/02/22 14:38:38;;;;;;;3.20;1.63;;;;;;;;;;5052726;28;20035;-82
2024/02/22 14:41:04;;;;;;;3.38;1.50;;;;;;;;;;5059977;28;20055;-85
2024/02/22 14:43:31;;;;;;;2.47;1.40;;;;;;;;;;5052166;28;20089;-83
2024/02/22 14:45:57;;;;;;;3.65;1.60;;;;;;;;;;5051969;28;20021;-80
2024/02/22 14:48:23;;;;;;;2.72;1.38;;;11.30;99.90;;;;;;5055995;28;20047;-80
2024/02/22 14:50:49;;;;;;;2.22;1.40;;;;;;;;;;5057925;28;20151;-80
2024/02/22 14:53:16;;;;;;;2.25;1.42;;;;;;;;;;5056493;28;20075;-80
2024/02/22 14:55:42;;;;;;;3.15;1.90;;;;;;;;;;5056495;28;20039;-83
2024/02/22 14:58:10;;;;;;;3.13;1.55;;;11.30;99.90;;;;;;5061605;28;20519;-83
2024/02/22 15:00:45;;;;;;;4.10;1.70;;;;;;;;;;5057372;28;20032;-81
2024/02/22 15:03:11;;;;;;;2.97;1.70;;;;;;;;;;5061524;28;20017;-81
2024/02/22 15:05:38;;;;;;;5.90;1.98;;;;;;;;;;5077867;28;20029;-79
2024/02/22 15:08:12;;;;;;;4.57;1.85;;;11.30;99.90;;;;;;5058498;28;20035;-83
2024/02/22 15:10:40;;;;;;;5.32;1.90;;;;;;;;;;5050113;28;20037;-89
2024/02/22 15:13:25;;;;;;;2.95;1.90;;;11.30;99.90;;;;;;5056603;28;20071;-81
2024/02/22 15:15:53;;;;;;;3.90;2.17;;;;;;;;;;5055652;28;20094;-81
2024/02/22 15:18:19;;;;;;;3.58;2.17;;;;;;;;;;5060843;28;20044;-84
2024/02/22 15:20:48;;;;;;;3.05;1.80;;;;;;;;;;5071093;28;20037;-81
2024/02/22 15:23:14;;;;;;;5.00;2.40;;;;;;;;;;5054978;28;20032;-83
2024/02/22 15:25:41;;;;;;;2.60;1.73;;;;;;;;;;5058581;28;20480;-80
2024/02/22 15:28:07;;;;;;;3.95;2.25;;;;;;;;;;5062511;28;20465;-88
2024/02/22 15:30:33;;;;;;;4.07;2.63;;;;;;;;;;5060943;28;20029;-83
2024/02/22 15:32:59;;;;;;;5.15;2.20;;;;;;;;;;5061738;28;20025;-84
2024/02/22 15:35:27;;;;;;;4.80;2.15;;;;;;;;;;5058496;28;20044;-84
2024/02/22 15:37:53;;;;;;;4.07;2.50;;;;;;;;;;5068248;28;20029;-81
2024/02/22 15:40:20;;;;;;;5.72;2.35;;;;;;;;;;5062296;28;20544;-84
2024/02/22 15:42:50;;;;;;;4.07;1.80;;;;;;;;;;5057525;28;20021;-84
2024/02/22 15:45:16;;;;;;;3.70;2.30;;;;;;;;;;5057790;28;20040;-80
2024/02/22 15:47:45;;;;;;;6.65;2.35;;;11.40;99.90;;;;;;5059046;28;20025;-87
2024/02/22 15:50:26;;;;;;;4.50;2.10;;;11.40;99.90;;;;;;5060528;28;20005;-83
2024/02/22 15:52:52;;;;;;;3.45;2.08;;;;;;;;;;5059662;28;20064;-88
2024/02/22 15:55:21;;;;;;;4.60;2.20;;;;;;;;;;5069521;28;20042;-80
2024/02/22 15:57:50;;;;;;;4.85;2.45;;;;;;;;;;5053611;28;20375;-80
2024/02/22 16:00:23;;;;;;;5.40;2.75;;;11.30;99.90;;;;;;5056781;28;20025;-83
2024/02/22 16:03:03;;;;;;;3.60;2.22;;;11.30;99.90;;;;;;5057467;28;20492;-81
2024/02/22 16:05:32;;;;;;;3.75;2.40;;;;;;;;;;5040634;28;20493;-80
2024/02/22 16:07:58;;;;;;;7.55;2.85;;;;;;;;;;5056601;28;20028;-78
2024/02/22 16:10:24;;;;;;;7.85;3.00;;;;;;;;;;5053562;28;20502;-84
2024/02/22 16:12:51;;;;;;;4.78;2.30;;;;;;;;;;5050406;28;20120;-82
2024/02/22 16:15:18;;;;;;;6.38;2.33;;;;;;;;;;5067940;28;20461;-80
2024/02/22 16:17:47;;;;;;;4.38;2.40;;;;;;;;;;5059045;28;20043;-80
2024/02/22 16:20:14;;;;;;;5.10;3.22;;;;;;;;;;5058044;28;20029;-79
2024/02/22 16:22:42;;;;;;;3.78;2.80;;;;;;;;;;5063105;28;20039;-82
2024/02/22 16:25:16;;;;;;;6.60;3.05;;;11.30;99.90;;;;;;5053592;28;20029;-81
2024/02/22 16:27:42;;;;;;;3.80;2.47;;;;;;;;;;5049265;28;20032;-81
2024/02/22 16:30:10;;;;;;;5.65;2.70;;;11.40;99.90;;;;;;5054527;28;20071;-80
2024/02/22 16:32:36;;;;;;;4.65;2.45;;;;;;;;;;5061530;28;20040;-81
2024/02/22 16:35:04;;;;;;;3.22;2.40;;;;;;;;;;5058786;28;20466;-82
2024/02/22 16:37:31;;;;;;;3.58;2.45;;;;;;;;;;5073199;28;20022;-80
2024/02/22 16:39:58;;;;;;;4.20;2.20;;;;;;;;;;5071532;28;20056;-79
2024/02/22 16:42:31;;;;;;;4.28;2.50;;;;;;;;;;5058639;28;20035;-83
2024/02/22 16:45:03;;;;;;;4.18;2.30;;;;;;;;;;5055316;28;20024;-80
2024/02/22 16:47:30;;;;;;;3.80;2.42;;;;;;;;;;5056934;28;20056;-80
2024/02/22 16:49:58;;;;;;;5.35;2.33;;;;;;;;;;5071678;28;20033;-80
2024/02/22 16:52:30;;;;;;;6.65;2.95;;;11.40;99.90;;;;;;5080351;28;20029;-81
2024/02/22 16:55:03;;;;;;;4.05;2.60;;;11.50;99.90;;;;;;5074377;28;20036;-80
2024/02/22 16:57:32;;;;;;;4.07;1.88;;;;;;;;;;5061719;28;20063;-79
2024/02/22 17:00:03;;;;;;;5.20;2.40;;;;;;;;;;5055475;28;20068;-82
2024/02/22 17:02:30;;;;;;;3.85;2.53;;;;;;;;;;5054654;28;20599;-79
2024/02/22 17:05:02;;;;;;;4.90;2.65;;;;;;;;;;5061994;28;20025;-81
2024/02/22 17:07:33;;;;;;;4.57;2.47;;;11.60;99.90;;;;;;5068767;28;20359;-84
2024/02/22 17:10:05;;;;;;;5.95;2.55;;;11.60;99.90;;;;;;5056996;28;20029;-80
2024/02/22 17:12:35;;;;;;;5.72;3.10;;;;;;;;;;5055648;28;20036;-83
2024/02/22 17:15:04;;;;;;;7.15;2.63;;;;;;;;;;5056276;28;20048;-80
2024/02/22 17:17:37;;;;;;;4.38;2.60;;;;;;;;;;5059013;28;20032;-83
2024/02/22 17:20:21;;;;;;;5.78;2.80;;;;;;;;;;5054546;28;20029;-84
2024/02/22 17:22:49;;;;;;;4.18;2.45;;;;;;;;;;5055613;28;20044;-81
2024/02/22 17:25:15;;;;;;;6.85;2.80;;;;;;;;;;5065836;28;20021;-81
2024/02/22 17:27:41;;;;;;;5.90;3.00;;;;;;;;;;5060258;28;20036;-84
2024/02/22 17:30:09;;;;;;;5.53;3.03;;;;;;;;;;5062339;28;20049;-82
2024/02/22 17:32:41;;;;;;;5.10;3.30;;;11.50;99.90;;;;;;5057869;28;20029;-79
2024/02/22 17:35:08;;;;;;;6.07;3.40;;;;;;;;;;5060084;28;20023;-80
2024/02/22 17:37:37;;;;;;;8.25;3.53;;;;;;;;;;5056546;28;20083;-79
2024/02/22 17:40:14;;;;;;;8.43;3.22;;;11.50;99.90;;;;;;5060493;28;20124;-80
2024/02/22 17:42:40;;;;;;;6.32;3.38;;;;;;;;;;5055368;28;20129;-83
2024/02/22 17:45:14;;;;;;;5.10;3.08;;;11.50;99.90;;;;;;5057976;28;20048;-84
2024/02/22 17:47:40;;;;;;;7.07;3.20;;;;;;;;;;5047084;28;20043;-85
2024/02/22 17:50:07;;;;;;;6.82;3.42;;;;;;;;;;5063269;28;20025;-82
2024/02/22 17:52:33;;;;;;;6.75;3.95;;;;;;;;;;5056988;28;20036;-86
2024/02/22 17:55:00;;;;;;;5.90;3.20;;;;;;;;;;5061448;28;20055;-81
2024/02/22 17:57:27;;;;;;;6.25;3.33;;;;;;;;;;5054329;28;20030;-80
2024/02/22 17:59:53;;;;;;;5.45;3.30;;;;;;;;;;5060127;28;20031;-84
2024/02/22 18:02:24;;;;;;;8.20;3.92;;;11.60;99.90;;;;;;5067346;28;20037;-86
2024/02/22 18:04:53;;;;;;;8.77;3.55;;;;;;;;;;5065156;28;20028;-82
2024/02/22 18:07:19;;;;;;;7.70;3.90;;;;;;;;;;5060538;28;20068;-85
2024/02/22 18:09:57;;;;;;;6.38;3.10;;;11.50;99.90;;;;;;5075863;28;20096;-81
2024/02/22 18:12:23;;;;;;;7.00;3.80;;;;;;;;;;5057111;28;20103;-80
2024/02/22 18:14:51;;;;;;;9.32;3.70;;;;;;;;;;5063318;28;20079;-79
2024/02/22 18:17:17;;;;;;;6.45;3.88;;;;;;;;;;5055658;28;20036;-81
2024/02/22 18:19:44;;;;;;;5.82;3.20;;;;;;;;;;5054647;28;20025;-81
2024/02/22 18:22:10;;;;;;;5.65;3.10;;;;;;;;;;5059678;28;20590;-79
2024/02/22 18:24:36;;;;;;;5.43;2.78;;;;;;;;;;5064076;28;20025;-79
2024/02/22 18:27:02;;;;;;;5.15;2.60;;;;;;;;;;5060523;28;20043;-79
2024/02/22 18:29:28;;;;;;;5.93;2.75;;;;;;;;;;5052680;28;20049;-82
2024/02/22 18:31:54;;;;;;;6.07;3.30;;;;;;;;;;5054781;28;20450;-84
2024/02/22 18:34:24;;;;;;;7.47;3.17;;;11.60;99.90;;;;;;5071800;28;20037;-81
2024/02/22 18:36:50;;;;;;;6.83;2.50;;;;;;;;;;5058357;28;20032;-81
2024/02/22 18:39:17;;;;;;;4.85;2.67;;;;;;;;;;5059130;28;20273;-81
2024/02/22 18:41:44;;;;;;;3.80;1.80;;;;;;;;;;5081410;28;20578;-83
2024/02/22 18:44:12;;;;;;;8.25;2.70;;;;;;;;;;5063050;28;20029;-79
2024/02/22 18:46:38;;;;;;;4.65;2.10;;;;;;;;;;5056329;28;20036;-81
2024/02/22 18:49:04;;;;;;;3.10;2.10;;;;;;;;;;5059018;28;20028;-80
2024/02/22 18:51:31;;;;;;;3.28;2.20;;;;;;;;;;5063567;28;20040;-80
2024/02/22 18:53:57;;;;;;;5.80;2.75;;;;;;;;;;5061449;28;20056;-80
2024/02/22 18:56:25;;;;;;;4.00;2.45;;;;;;;;;;5064387;28;20049;-83
2024/02/22 18:58:51;;;;;;;4.13;2.63;;;;;;;;;;5060688;28;20474;-78
2024/02/22 19:01:24;;;;;;;2.08;1.25;;;11.50;99.90;;;;;;5056856;28;20083;-80
2024/02/22 19:03:53;;;;;;;5.05;2.08;;;;;;;;;;5061780;28;20028;-83
2024/02/22 19:06:20;;;;;;;3.53;1.65;;;;;;;;;;5057105;28;20033;-83
2024/02/22 19:08:46;;;;;;;3.88;1.90;;;;;;;;;;5074204;28;21053;-82
2024/02/22 19:11:12;;;;;;;3.88;2.25;;;;;;;;;;5069109;28;20109;-84
2024/02/22 19:13:42;;;;;;;3.03;1.58;;;;;;;;;;5057718;28;20029;-83
2024/02/22 19:16:09;;;;;;;2.13;1.30;;;;;;;;;;5062723;28;20029;-80
2024/02/22 19:18:35;;;;;;;2.72;1.27;;;;;;;;;;5063543;28;20021;-83
2024/02/22 19:21:12;;;;;;;2.17;1.38;;;;;;;;;;5062033;28;20025;-80
2024/02/22 19:23:41;;;;;;;3.20;1.58;;;;;;;;;;5066339;28;20028;-81
2024/02/22 19:26:08;;;;;;;4.18;2.33;;;;;;;;;;5063012;28;20040;-80
2024/02/22 19:28:35;;;;;;;1.80;1.27;;;;;;;;;;5060768;28;20045;-85
2024/02/22 19:31:03;;;;;;;3.00;1.70;;;;;;;;;;5062874;28;20162;-82
2024/02/22 19:33:30;;;;;;;6.55;2.92;;;;;;;;;;5063761;28;20033;-81
2024/02/22 19:35:58;;;;;;;2.30;1.20;;;;;;;;;;5057222;28;20095;-79
2024/02/22 19:38:26;;;;;;;1.85;0.98;;;;;;;;;;5060169;28;20036;-82
2024/02/22 19:41:03;;;;;;;3.30;1.20;;;;;;;;;;5064196;28;20021;-85
2024/02/22 19:43:29;;;;;;;3.45;0.82;;;;;;;;;;5059392;28;20029;-79
2024/02/22 19:45:55;;;;;;;2.15;0.55;;;;;;;;;;5054511;28;20040;-79
2024/02/22 19:48:21;;;;;;;2.00;1.00;;;;;;;;;;5056459;28;20462;-80
2024/02/22 19:50:48;;;;;;;3.88;2.17;;;;;;;;;;5055514;28;20025;-86
2024/02/22 19:53:16;;;;;;;9.95;6.20;;;;;;;;;;5057933;28;20057;-82
2024/02/22 19:55:43;;;;;;;5.65;3.53;;;;;;;;;;5052585;28;20121;-84
2024/02/22 19:58:09;;;;;;;3.00;2.30;;;;;;;;;;5060619;28;20025;-81
2024/02/22 20:00:36;;;;;;;1.88;1.63;;;;;;;;;;5055456;28;20032;-82
2024/02/22 20:03:02;;;;;;;1.40;0.70;;;;;;;;;;5062166;28;20025;-83
2024/02/22 20:05:28;;;;;;;1.80;0.98;;;;;;;;;;5056595;28;20112;-80
2024/02/22 20:07:54;;;;;;;1.80;1.20;;;;;;;;;;5053972;28;20017;-83
2024/02/22 20:10:21;;;;;;;0.50;0.40;;;;;;;;;;5058906;28;20020;-81
2024/02/22 20:12:48;;;;;;;0.98;0.60;;;10.00;99.90;;;;;;5054008;28;20374;-82
2024/02/22 20:15:14;;;;;;;2.35;0.65;;;;;;;;;;5057403;28;20028;-81
2024/02/22 20:17:40;;;;;;;1.15;0.50;;;;;;;;;;5060040;28;20130;-81
2024/02/22 20:20:11;;;;;;;1.67;0.68;;;;;;;;;;5060084;28;20043;-81
2024/02/22 20:22:37;;;;;;;0.95;0.60;;;;;;;;;;5062921;28;20005;-86
2024/02/22 20:25:04;;;;;;;0.80;0.45;;;;;;;;;;5059700;28;20029;-81
2024/02/22 20:27:30;;;;;;;1.05;0.55;;;;;;;;;;5070104;28;20029;-81
2024/02/22 20:29:56;;;;;;;2.08;0.82;;;;;;;;;;5064979;28;20366;-79
2024/02/22 20:32:22;;;;;;;1.40;0.60;;;;;;;;;;5060661;28;20033;-83
2024/02/22 20:34:48;;;;;;;1.23;0.60;;;;;;;;;;5069541;28;20051;-82
2024/02/22 20:37:14;;;;;;;1.38;0.47;;;;;;;;;;5062016;28;20029;-79
2024/02/22 20:39:40;;;;;;;0.63;0.47;;;;;;;;;;5057207;28;20385;-79
2024/02/22 20:42:09;;;;;;;2.08;0.68;;;;;;;;;;5070450;28;20029;-82
2024/02/22 20:44:35;;;;;;;0.73;0.50;;;;;;;;;;5051716;28;20033;-81
2024/02/22 20:47:01;;;;;;;2.53;0.70;;;;;;;;;;5057467;28;20032;-83
2024/02/22 20:49:28;;;;;;;1.38;0.57;;;;;;;;;;5059429;28;20031;-86
2024/02/22 20:51:54;;;;;;;0.40;0.32;;;;;;;;;;5055998;28;20036;-83
2024/02/22 20:54:21;;;;;;;0.88;0.40;;;;;;;;;;5054709;28;20029;-81
2024/02/22 20:56:47;;;;;;;0.68;0.40;;;;;;;;;;5059899;28;20053;-86
2024/02/22 20:59:13;;;;;;;3.10;0.60;;;;;;;;;;5060420;28;20033;-84
2024/02/22 21:01:39;;;;;;;1.77;0.88;;;;;;;;;;5051761;28;20021;-83
2024/02/22 21:04:05;;;;;;;1.48;0.70;;;;;;;;;;5074845;28;20039;-82
2024/02/22 21:06:33;;;;;;;1.98;0.70;;;;;;;;;;5075955;28;20028;-81
2024/02/22 21:08:59;;;;;;;1.90;1.02;;;;;;;;;;5052552;28;20039;-79
2024/02/22 21:11:25;;;;;;;1.92;0.88;;;9.10;99.90;;;;;;5053562;28;20119;-84
2024/02/22 21:13:51;;;;;;;3.90;0.80;;;9.00;99.90;;;;;;5047624;28;20102;-78
2024/02/22 21:16:29;;;;;;;2.78;1.00;;;9.10;99.90;;;;;;5053700;28;20068;-80
2024/02/22 21:18:56;;;;;;;2.35;1.05;;;;;;;;;;5050842;28;20028;-81
2024/02/22 21:21:25;;;;;;;3.97;0.60;;;;;;;;;;5064682;28;20104;-84
2024/02/22 21:23:51;;;;;;;2.72;1.15;;;;;;;;;;5058697;28;20020;-81
2024/02/22 21:26:17;;;;;;;3.17;1.20;;;;;;;;;;5056165;28;20052;-81
2024/02/22 21:28:43;;;;;;;3.03;0.80;;;;;;;;;;5048141;28;20037;-81
2024/02/22 21:31:10;;;;;;;1.77;0.90;;;;;;;;;;5070978;28;20032;-80
2024/02/22 21:33:37;;;;;;;2.35;0.70;;;;;;;;;;5055138;28;20037;-80
2024/02/22 21:36:04;;;;;;;5.00;0.85;;;;;;;;;;5055452;28;20025;-81
2024/02/22 21:38:31;;;;;;;1.02;0.63;;;9.00;99.90;;;;;;5055299;28;20077;-79
2024/02/22 21:40:59;;;;;;;2.50;1.10;;;10.80;99.90;;;;;;5059976;28;20081;-79
2024/02/22 21:43:26;;;;;;;4.35;0.70;;;8.80;99.90;;;;;;5058006;28;20028;-83
2024/02/22 21:45:52;;;;;;;0.80;0.55;;;9.20;99.90;;;;;;5064187;28;20033;-82
2024/02/22 21:48:18;;;;;;;4.43;0.63;;;8.70;99.90;;;;;;5059890;28;20037;-81
2024/02/22 21:50:47;;;;;;;1.40;0.60;;;8.70;99.90;;;;;;5068928;28;20227;-87
2024/02/22 21:53:13;;;;;;;2.30;0.50;;;8.60;99.90;;;;;;5058393;28;20132;-85
2024/02/22 21:55:41;;;;;;;2.65;0.80;;;9.90;99.90;;;;;;5062310;28;20075;-85
2024/02/22 21:58:07;;;;;;;1.30;0.50;;;7.60;99.90;;;;;;5063986;28;20020;-80
2024/02/22 22:00:33;;;;;;;2.47;0.63;;;8.70;99.90;;;;;;5062026;28;20041;-85
2024/02/22 22:03:00;;;;;;;2.25;0.75;;;8.50;99.90;;;;;;5063543;28;20547;-82
2024/02/22 22:05:27;;;;;;;2.67;0.98;;;8.60;99.90;;;;;;5063427;28;20022;-87
2024/02/22 22:07:56;;;;;;;3.92;0.73;;;8.80;99.90;;;;;;5063017;28;20025;-80
2024/02/22 22:10:25;;;;;;;2.63;0.70;;;8.60;99.90;;;;;;5066662;28;20412;-85
2024/02/22 22:12:51;;;;;;;0.88;0.40;;;8.60;99.90;;;;;;5075790;28;20021;-87
2024/02/22 22:15:23;;;;;;;2.33;0.60;;;8.70;99.90;;;;;;5075265;28;20056;-86
2024/02/22 22:18:02;;;;;;;1.92;0.70;;;8.70;99.90;;;;;;5076900;28;20053;-85
2024/02/22 22:20:30;;;;;;;5.05;1.08;;;8.60;99.90;;;;;;5072213;28;20047;-87
2024/02/22 22:22:57;;;;;;;3.90;0.80;;;8.60;99.90;;;;;;5078137;28;20021;-86
2024/02/22 22:25:39;;;;;;;3.85;1.02;;;8.60;99.90;;;;;;5072477;28;20044;-89
2024/02/22 22:28:09;;;;;;;1.98;0.45;;;8.60;99.90;;;;;;5081551;28;20013;-90
2024/02/22 22:30:48;;;;;;;2.90;0.85;;;8.50;99.90;;;;;;5091144;28;20025;-85
2024/02/22 22:33:14;;;;;;;6.32;1.10;;;8.50;99.90;;;;;;5077843;28;20021;-82
2024/02/22 22:35:40;;;;;;;3.95;1.10;;;8.50;99.90;;;;;;5070766;28;20052;-84
2024/02/22 22:38:07;;;;;;;5.63;1.65;;;8.50;99.90;;;;;;5072979;28;20039;-82
2024/02/22 22:40:33;;;;;;;8.98;0.95;;;8.40;99.90;;;;;;5073588;28;20024;-86
2024/02/22 22:42:59;;;;;;;1.73;0.60;;;8.40;99.90;;;;;;5067121;28;20017;-86
2024/02/22 22:45:30;;;;;;;2.60;0.77;;;8.30;99.90;;;;;;5065843;28;20017;-83
2024/02/22 22:47:58;;;;;;;3.45;0.80;;;7.60;99.90;;;;;;5064528;28;20023;-84
2024/02/22 22:50:26;;;;;;;4.05;1.63;;;8.20;99.90;;;;;;5064455;28;20529;-85
2024/02/22 22:52:52;;;;;;;5.68;1.00;;;7.20;99.90;;;;;;5049510;28;20378;-84
2024/02/22 22:55:27;;;;;;;1.75;0.80;;;8.30;99.90;;;;;;5068149;28;20041;-82
2024/02/22 22:58:01;;;;;;;4.20;0.90;;;8.20;99.90;;;;;;5068353;28;20061;-87
2024/02/22 23:00:35;;;;;;;0.95;0.45;;;8.20;99.90;;;;;;5064548;28;20033;-81
2024/02/22 23:03:04;;;;;;;2.95;0.77;;;8.40;99.90;;;;;;5061988;28;20021;-85
2024/02/22 23:05:49;;;;;;;4.93;0.88;;;8.40;99.90;;;;;;5061915;28;20025;-84
2024/02/22 23:08:16;;;;;;;3.90;1.00;;;8.40;99.90;;;;;;5061601;28;20050;-87
2024/02/22 23:11:03;;;;;;;14.27;2.90;;;8.40;99.90;;;;;;5056743;28;20105;-85
2024/02/22 23:13:47;;;;;;;3.15;0.93;;;8.20;99.90;;;;;;5059639;28;20021;-86
2024/02/22 23:16:16;;;;;;;4.53;0.80;;;8.30;99.90;;;;;;5059187;28;20047;-81
2024/02/22 23:18:57;;;;;;;6.63;0.80;;;8.20;99.90;;;;;;5062872;28;20037;-83
2024/02/22 23:21:42;;;;;;;5.32;0.90;;;8.00;99.90;;;;;;5068800;28;20439;-82
2024/02/22 23:24:21;;;;;;;4.75;1.00;;;8.60;99.90;;;;;;5063534;28;20035;-81
2024/02/22 23:26:50;;;;;;;5.05;0.95;;;7.90;99.90;;;;;;5064491;28;20120;-83
2024/02/22 23:29:17;;;;;;;7.57;1.13;;;8.00;99.90;;;;;;5061619;28;20043;-84
2024/02/22 23:31:48;;;;;;;4.07;1.10;;;7.90;99.90;;;;;;5063086;28;20314;-81
2024/02/22 23:34:19;;;;;;;2.53;0.63;;;8.00;99.90;;;;;;5061233;28;20025;-82
2024/02/22 23:37:08;;;;;;;;;;;8.00;99.90;;;;;;5056332;28;20048;-82
2024/02/22 23:39:36;;;;;;;1.95;0.60;;;8.00;99.90;;;;;;5062525;28;19904;-81
2024/02/22 23:42:11;;;;;;;6.63;1.08;;;8.00;99.90;;;;;;5059056;28;20089;-82
2024/02/22 23:44:41;;;;;;;3.55;0.90;;;9.10;99.90;;;;;;5076663;28;20037;-87
2024/02/22 23:47:09;;;;;;;4.80;1.10;;;8.00;99.90;;;;;;5062979;28;20025;-79
2024/02/22 23:49:35;;;;;;;5.28;1.00;;;7.90;99.90;;;;;;5059584;28;20033;-85
2024/02/22 23:52:03;;;;;;;6.47;1.40;;;7.90;99.90;;;;;;5063828;28;20112;-82
2024/02/22 23:54:34;;;;;;;5.40;0.95;;;8.00;99.90;;;;;;5067768;28;20024;-83
2024/02/22 23:57:05;;;;;;;3.05;0.90;;;8.00;99.90;;;;;;5042829;28;20061;-81
2024/02/22 23:59:31;;;;;;;2.85;1.20;;;7.90;99.90;;;;;;5078415;28;20048;-87
